sensor_id;sensor_type;location;lat;lon;timestamp;temperature;humidity
50570;DHT22;36525;49.398;7.614;2023-02-14T00:01:21;0.40;99.90
50570;DHT22;36525;49.398;7.614;2023-02-14T00:03:48;0.40;99.90
50570;DHT22;36525;49.398;7.614;2023-02-14T00:06:15;0.40;99.90
50570;DHT22;36525;49.398;7.614;2023-02-14T00:08:42;0.30;99.90
50570;DHT22;36525;49.398;7.614;2023-02-14T00:11:13;0.30;99.90
50570;DHT22;36525;49.398;7.614;2023-02-14T00:13:40;0.30;99.90
50570;DHT22;36525;49.398;7.614;2023-02-14T00:16:28;0.30;99.90
50570;DHT22;36525;49.398;7.614;2023-02-14T00:18:55;0.20;99.90
50570;DHT22;36525;49.398;7.614;2023-02-14T00:21:33;0.20;99.90
50570;DHT22;36525;49.398;7.614;2023-02-14T00:24:11;0.10;99.90
50570;DHT22;36525;49.398;7.614;2023-02-14T00:26:40;0.10;99.90
50570;DHT22;36525;49.398;7.614;2023-02-14T00:31:37;0.00;99.90
50570;DHT22;36525;49.398;7.614;2023-02-14T00:34:06;0.00;99.90
50570;DHT22;36525;49.398;7.614;2023-02-14T00:36:34;0.00;99.90
50570;DHT22;36525;49.398;7.614;2023-02-14T00:39:05;-0.10;99.90
50570;DHT22;36525;49.398;7.614;2023-02-14T00:41:33;-0.10;99.90
50570;DHT22;36525;49.398;7.614;2023-02-14T00:44:01;-0.10;99.90
50570;DHT22;36525;49.398;7.614;2023-02-14T00:46:28;-0.10;99.90
50570;DHT22;36525;49.398;7.614;2023-02-14T00:48:55;-0.10;99.90
50570;DHT22;36525;49.398;7.614;2023-02-14T00:51:23;-0.10;99.90
50570;DHT22;36525;49.398;7.614;2023-02-14T00:53:51;-0.10;99.90
50570;DHT22;36525;49.398;7.614;2023-02-14T00:56:18;-0.20;99.90
50570;DHT22;36525;49.398;7.614;2023-02-14T00:58:46;-0.20;99.90
50570;DHT22;36525;49.398;7.614;2023-02-14T01:01:14;-0.20;99.90
50570;DHT22;36525;49.398;7.614;2023-02-14T01:03:42;-0.20;99.90
50570;DHT22;36525;49.398;7.614;2023-02-14T01:06:09;-0.20;99.90
50570;DHT22;36525;49.398;7.614;2023-02-14T01:08:36;-0.20;99.90
50570;DHT22;36525;49.398;7.614;2023-02-14T01:11:09;-0.20;99.90
50570;DHT22;36525;49.398;7.614;2023-02-14T01:13:38;-0.30;99.90
50570;DHT22;36525;49.398;7.614;2023-02-14T01:16:08;-0.40;99.90
50570;DHT22;36525;49.398;7.614;2023-02-14T01:18:38;-0.40;99.90
50570;DHT22;36525;49.398;7.614;2023-02-14T01:21:24;-0.40;99.90
50570;DHT22;36525;49.398;7.614;2023-02-14T01:23:54;-0.40;99.90
50570;DHT22;36525;49.398;7.614;2023-02-14T01:26:24;-0.40;99.90
50570;DHT22;36525;49.398;7.614;2023-02-14T01:28:52;-0.40;99.90
50570;DHT22;36525;49.398;7.614;2023-02-14T01:31:23;-0.40;99.90
50570;DHT22;36525;49.398;7.614;2023-02-14T01:33:55;-0.40;99.90
50570;DHT22;36525;49.398;7.614;2023-02-14T01:36:30;-0.40;99.90
50570;DHT22;36525;49.398;7.614;2023-02-14T01:39:05;-0.40;99.90
50570;DHT22;36525;49.398;7.614;2023-02-14T01:41:36;-0.50;99.90
50570;DHT22;36525;49.398;7.614;2023-02-14T01:46:35;-0.50;99.90
50570;DHT22;36525;49.398;7.614;2023-02-14T01:49:14;-0.50;99.90
50570;DHT22;36525;49.398;7.614;2023-02-14T01:51:51;-0.50;99.90
50570;DHT22;36525;49.398;7.614;2023-02-14T01:54:25;-0.60;99.90
50570;DHT22;36525;49.398;7.614;2023-02-14T01:56:56;-0.50;99.90
50570;DHT22;36525;49.398;7.614;2023-02-14T01:59:27;-0.60;99.90
50570;DHT22;36525;49.398;7.614;2023-02-14T02:01:58;-0.60;99.90
50570;DHT22;36525;49.398;7.614;2023-02-14T02:04:31;-0.60;99.90
50570;DHT22;36525;49.398;7.614;2023-02-14T02:07:04;-0.60;99.90
50570;DHT22;36525;49.398;7.614;2023-02-14T02:09:48;-0.60;99.90
50570;DHT22;36525;49.398;7.614;2023-02-14T02:12:17;-0.60;99.90
50570;DHT22;36525;49.398;7.614;2023-02-14T02:14:44;-0.60;99.90
50570;DHT22;36525;49.398;7.614;2023-02-14T02:17:38;-0.70;99.90
50570;DHT22;36525;49.398;7.614;2023-02-14T02:26:15;-0.70;99.90
50570;DHT22;36525;49.398;7.614;2023-02-14T02:40:47;-0.80;99.90
50570;DHT22;36525;49.398;7.614;2023-02-14T02:55:24;-0.90;99.90
50570;DHT22;36525;49.398;7.614;2023-02-14T02:57:55;-1.00;99.90
50570;DHT22;36525;49.398;7.614;2023-02-14T03:00:23;-1.00;99.90
50570;DHT22;36525;49.398;7.614;2023-02-14T03:02:53;-1.00;99.90
50570;DHT22;36525;49.398;7.614;2023-02-14T03:05:40;-1.00;99.90
50570;DHT22;36525;49.398;7.614;2023-02-14T03:08:08;-1.00;99.90
50570;DHT22;36525;49.398;7.614;2023-02-14T03:10:37;-1.00;99.90
50570;DHT22;36525;49.398;7.614;2023-02-14T03:19:06;-1.20;99.90
50570;DHT22;36525;49.398;7.614;2023-02-14T03:22:20;-1.20;99.90
50570;DHT22;36525;49.398;7.614;2023-02-14T03:25:15;-1.20;99.90
50570;DHT22;36525;49.398;7.614;2023-02-14T03:27:57;-1.20;99.90
50570;DHT22;36525;49.398;7.614;2023-02-14T03:33:54;-1.20;99.90
50570;DHT22;36525;49.398;7.614;2023-02-14T03:36:38;-1.20;99.90
50570;DHT22;36525;49.398;7.614;2023-02-14T03:42:08;-1.20;99.90
50570;DHT22;36525;49.398;7.614;2023-02-14T03:44:39;-1.30;99.90
50570;DHT22;36525;49.398;7.614;2023-02-14T03:47:13;-1.20;99.90
50570;DHT22;36525;49.398;7.614;2023-02-14T03:49:47;-1.20;99.90
50570;DHT22;36525;49.398;7.614;2023-02-14T03:52:17;-1.30;99.90
50570;DHT22;36525;49.398;7.614;2023-02-14T03:54:46;-1.30;99.90
50570;DHT22;36525;49.398;7.614;2023-02-14T03:57:23;-1.20;99.90
50570;DHT22;36525;49.398;7.614;2023-02-14T03:59:52;-1.30;99.90
50570;DHT22;36525;49.398;7.614;2023-02-14T04:02:31;-1.20;99.90
50570;DHT22;36525;49.398;7.614;2023-02-14T04:05:04;-1.30;99.90
50570;DHT22;36525;49.398;7.614;2023-02-14T04:07:48;-1.30;99.90
50570;DHT22;36525;49.398;7.614;2023-02-14T04:10:17;-1.40;99.90
50570;DHT22;36525;49.398;7.614;2023-02-14T04:12:45;-1.40;99.90
50570;DHT22;36525;49.398;7.614;2023-02-14T04:15:13;-1.40;99.90
50570;DHT22;36525;49.398;7.614;2023-02-14T04:17:41;-1.40;99.90
50570;DHT22;36525;49.398;7.614;2023-02-14T04:20:27;-1.40;99.90
50570;DHT22;36525;49.398;7.614;2023-02-14T04:22:55;-1.40;99.90
50570;DHT22;36525;49.398;7.614;2023-02-14T04:25:22;-1.40;99.90
50570;DHT22;36525;49.398;7.614;2023-02-14T04:27:49;-1.40;99.90
50570;DHT22;36525;49.398;7.614;2023-02-14T04:30:16;-1.50;99.90
50570;DHT22;36525;49.398;7.614;2023-02-14T04:32:44;-1.50;99.90
50570;DHT22;36525;49.398;7.614;2023-02-14T04:35:12;-1.50;99.90
50570;DHT22;36525;49.398;7.614;2023-02-14T04:37:40;-1.50;99.90
50570;DHT22;36525;49.398;7.614;2023-02-14T04:40:07;-1.50;99.90
50570;DHT22;36525;49.398;7.614;2023-02-14T04:42:35;-1.50;99.90
50570;DHT22;36525;49.398;7.614;2023-02-14T04:45:05;-1.50;99.90
50570;DHT22;36525;49.398;7.614;2023-02-14T04:47:32;-1.60;99.90
50570;DHT22;36525;49.398;7.614;2023-02-14T04:49:59;-1.60;99.90
50570;DHT22;36525;49.398;7.614;2023-02-14T04:52:26;-1.60;99.90
50570;DHT22;36525;49.398;7.614;2023-02-14T04:54:53;-1.70;99.90
50570;DHT22;36525;49.398;7.614;2023-02-14T04:59:47;-1.70;99.90
50570;DHT22;36525;49.398;7.614;2023-02-14T05:02:14;-1.70;99.90
50570;DHT22;36525;49.398;7.614;2023-02-14T05:04:41;-1.70;99.90
50570;DHT22;36525;49.398;7.614;2023-02-14T05:07:08;-1.70;99.90
50570;DHT22;36525;49.398;7.614;2023-02-14T05:09:37;-1.70;99.90
50570;DHT22;36525;49.398;7.614;2023-02-14T05:12:04;-1.70;99.90
50570;DHT22;36525;49.398;7.614;2023-02-14T05:14:31;-1.70;99.90
50570;DHT22;36525;49.398;7.614;2023-02-14T05:16:58;-1.80;99.90
50570;DHT22;36525;49.398;7.614;2023-02-14T05:19:25;-1.80;99.90
50570;DHT22;36525;49.398;7.614;2023-02-14T05:21:52;-1.80;99.90
50570;DHT22;36525;49.398;7.614;2023-02-14T05:24:19;-1.70;99.90
50570;DHT22;36525;49.398;7.614;2023-02-14T05:26:45;-1.70;99.90
50570;DHT22;36525;49.398;7.614;2023-02-14T05:29:12;-1.70;99.90
50570;DHT22;36525;49.398;7.614;2023-02-14T05:31:40;-1.60;99.90
50570;DHT22;36525;49.398;7.614;2023-02-14T05:34:08;-1.50;99.90
50570;DHT22;36525;49.398;7.614;2023-02-14T05:36:35;-1.50;99.90
50570;DHT22;36525;49.398;7.614;2023-02-14T05:39:03;-1.50;99.90
50570;DHT22;36525;49.398;7.614;2023-02-14T05:41:30;-1.50;99.90
50570;DHT22;36525;49.398;7.614;2023-02-14T05:43:57;-1.50;99.90
50570;DHT22;36525;49.398;7.614;2023-02-14T05:46:24;-1.70;99.90
50570;DHT22;36525;49.398;7.614;2023-02-14T05:48:51;-1.80;99.90
50570;DHT22;36525;49.398;7.614;2023-02-14T05:51:18;-1.80;99.90
50570;DHT22;36525;49.398;7.614;2023-02-14T05:53:45;-1.80;99.90
50570;DHT22;36525;49.398;7.614;2023-02-14T05:56:12;-1.70;99.90
50570;DHT22;36525;49.398;7.614;2023-02-14T05:58:39;-1.80;99.90
50570;DHT22;36525;49.398;7.614;2023-02-14T06:01:06;-1.80;99.90
50570;DHT22;36525;49.398;7.614;2023-02-14T06:03:33;-1.70;99.90
50570;DHT22;36525;49.398;7.614;2023-02-14T06:06:00;-1.70;99.90
50570;DHT22;36525;49.398;7.614;2023-02-14T06:08:27;-1.70;99.90
50570;DHT22;36525;49.398;7.614;2023-02-14T06:10:54;-1.70;99.90
50570;DHT22;36525;49.398;7.614;2023-02-14T06:13:21;-1.70;99.90
50570;DHT22;36525;49.398;7.614;2023-02-14T06:15:48;-1.80;99.90
50570;DHT22;36525;49.398;7.614;2023-02-14T06:18:14;-1.80;99.90
50570;DHT22;36525;49.398;7.614;2023-02-14T06:20:41;-1.80;99.90
50570;DHT22;36525;49.398;7.614;2023-02-14T06:23:08;-1.80;99.90
50570;DHT22;36525;49.398;7.614;2023-02-14T06:25:35;-1.80;99.90
50570;DHT22;36525;49.398;7.614;2023-02-14T06:28:02;-1.80;99.90
50570;DHT22;36525;49.398;7.614;2023-02-14T06:30:29;-1.80;99.90
50570;DHT22;36525;49.398;7.614;2023-02-14T06:32:59;-1.80;99.90
50570;DHT22;36525;49.398;7.614;2023-02-14T06:35:26;-1.80;99.90
50570;DHT22;36525;49.398;7.614;2023-02-14T06:37:53;-1.90;99.90
50570;DHT22;36525;49.398;7.614;2023-02-14T06:40:20;-1.90;99.90
50570;DHT22;36525;49.398;7.614;2023-02-14T06:42:47;-1.90;99.90
50570;DHT22;36525;49.398;7.614;2023-02-14T06:45:14;-1.90;99.90
50570;DHT22;36525;49.398;7.614;2023-02-14T06:47:41;-1.90;99.90
50570;DHT22;36525;49.398;7.614;2023-02-14T06:50:08;-1.90;99.90
50570;DHT22;36525;49.398;7.614;2023-02-14T06:52:38;-1.90;99.90
50570;DHT22;36525;49.398;7.614;2023-02-14T06:55:05;-1.90;99.90
50570;DHT22;36525;49.398;7.614;2023-02-14T06:57:32;-2.00;99.90
50570;DHT22;36525;49.398;7.614;2023-02-14T06:59:59;-2.00;99.90
50570;DHT22;36525;49.398;7.614;2023-02-14T07:02:26;-1.90;99.90
50570;DHT22;36525;49.398;7.614;2023-02-14T07:04:53;-1.80;99.90
50570;DHT22;36525;49.398;7.614;2023-02-14T07:07:20;-1.80;99.90
50570;DHT22;36525;49.398;7.614;2023-02-14T07:09:47;-1.70;99.90
50570;DHT22;36525;49.398;7.614;2023-02-14T07:12:14;-1.70;99.90
50570;DHT22;36525;49.398;7.614;2023-02-14T07:14:41;-1.70;99.90
50570;DHT22;36525;49.398;7.614;2023-02-14T07:17:08;-1.60;99.90
50570;DHT22;36525;49.398;7.614;2023-02-14T07:19:35;-1.60;99.90
50570;DHT22;36525;49.398;7.614;2023-02-14T07:22:02;-1.60;99.90
50570;DHT22;36525;49.398;7.614;2023-02-14T07:24:29;-1.60;99.90
50570;DHT22;36525;49.398;7.614;2023-02-14T07:26:56;-1.60;99.90
50570;DHT22;36525;49.398;7.614;2023-02-14T07:29:23;-1.50;99.90
50570;DHT22;36525;49.398;7.614;2023-02-14T07:31:50;-1.50;99.90
50570;DHT22;36525;49.398;7.614;2023-02-14T07:34:17;-1.40;99.90
50570;DHT22;36525;49.398;7.614;2023-02-14T07:36:44;-1.40;99.90
50570;DHT22;36525;49.398;7.614;2023-02-14T07:39:12;-1.40;99.90
50570;DHT22;36525;49.398;7.614;2023-02-14T07:41:39;-1.30;99.90
50570;DHT22;36525;49.398;7.614;2023-02-14T07:44:06;-1.30;99.90
50570;DHT22;36525;49.398;7.614;2023-02-14T07:46:33;-1.20;99.90
50570;DHT22;36525;49.398;7.614;2023-02-14T07:49:00;-1.10;99.90
50570;DHT22;36525;49.398;7.614;2023-02-14T07:51:27;-1.10;99.90
50570;DHT22;36525;49.398;7.614;2023-02-14T07:56:21;-1.00;99.90
50570;DHT22;36525;49.398;7.614;2023-02-14T07:58:48;-1.00;99.90
50570;DHT22;36525;49.398;7.614;2023-02-14T08:01:16;-0.90;99.90
50570;DHT22;36525;49.398;7.614;2023-02-14T08:03:43;-0.80;99.90
50570;DHT22;36525;49.398;7.614;2023-02-14T08:06:16;-0.70;99.90
50570;DHT22;36525;49.398;7.614;2023-02-14T08:08:46;-0.70;99.90
50570;DHT22;36525;49.398;7.614;2023-02-14T08:11:13;-0.60;99.90
50570;DHT22;36525;49.398;7.614;2023-02-14T08:14:01;-0.40;99.90
50570;DHT22;36525;49.398;7.614;2023-02-14T08:16:29;-0.30;99.90
50570;DHT22;36525;49.398;7.614;2023-02-14T08:19:00;-0.10;99.90
50570;DHT22;36525;49.398;7.614;2023-02-14T08:21:27;0.00;99.90
50570;DHT22;36525;49.398;7.614;2023-02-14T08:23:55;0.20;99.90
50570;DHT22;36525;49.398;7.614;2023-02-14T08:26:22;0.40;99.90
50570;DHT22;36525;49.398;7.614;2023-02-14T08:28:49;0.60;99.90
50570;DHT22;36525;49.398;7.614;2023-02-14T08:31:25;0.80;99.90
50570;DHT22;36525;49.398;7.614;2023-02-14T08:34:05;0.90;99.90
50570;DHT22;36525;49.398;7.614;2023-02-14T08:36:36;1.00;99.90
50570;DHT22;36525;49.398;7.614;2023-02-14T08:39:04;1.10;99.90
50570;DHT22;36525;49.398;7.614;2023-02-14T08:41:31;1.30;99.90
50570;DHT22;36525;49.398;7.614;2023-02-14T08:43:58;1.50;99.90
50570;DHT22;36525;49.398;7.614;2023-02-14T08:46:26;1.60;99.90
50570;DHT22;36525;49.398;7.614;2023-02-14T08:48:53;1.70;99.90
50570;DHT22;36525;49.398;7.614;2023-02-14T08:51:21;1.80;99.90
50570;DHT22;36525;49.398;7.614;2023-02-14T08:53:49;1.90;99.90
50570;DHT22;36525;49.398;7.614;2023-02-14T08:56:18;1.90;99.90
50570;DHT22;36525;49.398;7.614;2023-02-14T08:58:46;2.10;99.90
50570;DHT22;36525;49.398;7.614;2023-02-14T09:01:17;2.20;99.90
50570;DHT22;36525;49.398;7.614;2023-02-14T09:03:44;2.40;99.90
50570;DHT22;36525;49.398;7.614;2023-02-14T09:06:14;2.50;99.90
50570;DHT22;36525;49.398;7.614;2023-02-14T09:08:43;2.60;99.90
50570;DHT22;36525;49.398;7.614;2023-02-14T09:11:16;2.80;99.90
50570;DHT22;36525;49.398;7.614;2023-02-14T09:13:46;2.90;99.90
50570;DHT22;36525;49.398;7.614;2023-02-14T09:16:15;3.00;99.90
50570;DHT22;36525;49.398;7.614;2023-02-14T09:18:44;3.00;99.90
50570;DHT22;36525;49.398;7.614;2023-02-14T09:21:17;3.10;99.90
50570;DHT22;36525;49.398;7.614;2023-02-14T09:23:46;3.30;99.90
50570;DHT22;36525;49.398;7.614;2023-02-14T09:26:14;3.30;99.90
50570;DHT22;36525;49.398;7.614;2023-02-14T09:28:42;3.50;99.90
50570;DHT22;36525;49.398;7.614;2023-02-14T09:31:19;3.50;99.90
50570;DHT22;36525;49.398;7.614;2023-02-14T09:33:49;3.60;99.90
50570;DHT22;36525;49.398;7.614;2023-02-14T09:36:35;3.60;99.90
50570;DHT22;36525;49.398;7.614;2023-02-14T09:39:21;3.70;99.90
50570;DHT22;36525;49.398;7.614;2023-02-14T09:44:42;3.60;99.90
50570;DHT22;36525;49.398;7.614;2023-02-14T09:52:56;3.70;99.90
50570;DHT22;36525;49.398;7.614;2023-02-14T09:55:34;3.70;99.90
50570;DHT22;36525;49.398;7.614;2023-02-14T10:01:56;3.80;99.90
50570;DHT22;36525;49.398;7.614;2023-02-14T10:04:33;3.90;99.90
50570;DHT22;36525;49.398;7.614;2023-02-14T10:07:16;4.00;99.90
50570;DHT22;36525;49.398;7.614;2023-02-14T10:10:13;4.10;99.90
50570;DHT22;36525;49.398;7.614;2023-02-14T10:13:06;4.10;99.90
50570;DHT22;36525;49.398;7.614;2023-02-14T10:16:02;4.20;99.90
50570;DHT22;36525;49.398;7.614;2023-02-14T10:18:41;4.30;99.90
50570;DHT22;36525;49.398;7.614;2023-02-14T10:21:20;4.30;99.90
50570;DHT22;36525;49.398;7.614;2023-02-14T10:24:03;4.50;99.90
50570;DHT22;36525;49.398;7.614;2023-02-14T10:26:38;4.50;99.90
50570;DHT22;36525;49.398;7.614;2023-02-14T10:29:14;4.60;99.90
50570;DHT22;36525;49.398;7.614;2023-02-14T10:32:01;4.70;99.90
50570;DHT22;36525;49.398;7.614;2023-02-14T10:34:49;4.80;99.90
50570;DHT22;36525;49.398;7.614;2023-02-14T10:47:01;5.10;99.90
50570;DHT22;36525;49.398;7.614;2023-02-14T10:52:00;5.40;99.90
50570;DHT22;36525;49.398;7.614;2023-02-14T10:54:39;5.40;99.90
50570;DHT22;36525;49.398;7.614;2023-02-14T11:00:26;5.70;99.90
50570;DHT22;36525;49.398;7.614;2023-02-14T11:03:01;5.80;99.90
50570;DHT22;36525;49.398;7.614;2023-02-14T11:05:38;5.80;99.90
50570;DHT22;36525;49.398;7.614;2023-02-14T11:08:17;5.90;99.90
50570;DHT22;36525;49.398;7.614;2023-02-14T11:10:53;6.00;99.90
50570;DHT22;36525;49.398;7.614;2023-02-14T11:13:31;6.20;99.90
50570;DHT22;36525;49.398;7.614;2023-02-14T11:16:32;6.20;99.90
50570;DHT22;36525;49.398;7.614;2023-02-14T11:19:24;6.30;99.90
50570;DHT22;36525;49.398;7.614;2023-02-14T11:21:54;6.30;99.90
50570;DHT22;36525;49.398;7.614;2023-02-14T11:24:30;6.30;99.90
50570;DHT22;36525;49.398;7.614;2023-02-14T11:52:55;7.20;99.90
50570;DHT22;36525;49.398;7.614;2023-02-14T11:55:31;7.20;99.90
50570;DHT22;36525;49.398;7.614;2023-02-14T11:58:01;7.20;99.90
50570;DHT22;36525;49.398;7.614;2023-02-14T12:00:29;7.30;99.90
50570;DHT22;36525;49.398;7.614;2023-02-14T12:02:59;7.40;99.90
50570;DHT22;36525;49.398;7.614;2023-02-14T12:05:42;7.50;99.90
50570;DHT22;36525;49.398;7.614;2023-02-14T12:08:12;7.60;99.90
50570;DHT22;36525;49.398;7.614;2023-02-14T12:10:39;7.60;99.90
50570;DHT22;36525;49.398;7.614;2023-02-14T12:21:57;7.80;99.90
50570;DHT22;36525;49.398;7.614;2023-02-14T12:28:03;7.90;99.90
50570;DHT22;36525;49.398;7.614;2023-02-14T12:30:34;8.10;99.90
50570;DHT22;36525;49.398;7.614;2023-02-14T12:33:02;8.20;99.90
50570;DHT22;36525;49.398;7.614;2023-02-14T12:44:24;8.30;99.90
50570;DHT22;36525;49.398;7.614;2023-02-14T12:52:42;8.50;99.90
50570;DHT22;36525;49.398;7.614;2023-02-14T13:11:29;8.90;99.90
50570;DHT22;36525;49.398;7.614;2023-02-14T13:14:33;9.00;99.90
50570;DHT22;36525;49.398;7.614;2023-02-14T13:17:18;9.10;99.90
50570;DHT22;36525;49.398;7.614;2023-02-14T13:20:19;9.10;99.90
50570;DHT22;36525;49.398;7.614;2023-02-14T13:22:51;9.30;99.90
50570;DHT22;36525;49.398;7.614;2023-02-14T13:25:33;9.30;99.90
50570;DHT22;36525;49.398;7.614;2023-02-14T13:28:05;9.50;99.90
50570;DHT22;36525;49.398;7.614;2023-02-14T13:30:36;9.50;99.90
50570;DHT22;36525;49.398;7.614;2023-02-14T13:33:34;9.60;99.90
50570;DHT22;36525;49.398;7.614;2023-02-14T13:36:10;9.70;99.90
50570;DHT22;36525;49.398;7.614;2023-02-14T13:38:44;9.80;99.90
50570;DHT22;36525;49.398;7.614;2023-02-14T13:48:59;15.60;99.90
50570;DHT22;36525;49.398;7.614;2023-02-14T13:54:21;17.90;99.50
50570;DHT22;36525;49.398;7.614;2023-02-14T13:57:00;18.60;97.70
50570;DHT22;36525;49.398;7.614;2023-02-14T13:59:33;19.20;95.10
50570;DHT22;36525;49.398;7.614;2023-02-14T14:04:55;19.60;92.80
50570;DHT22;36525;49.398;7.614;2023-02-14T14:07:25;20.00;92.60
50570;DHT22;36525;49.398;7.614;2023-02-14T14:09:58;20.40;91.40
50570;DHT22;36525;49.398;7.614;2023-02-14T14:17:33;21.00;88.10
50570;DHT22;36525;49.398;7.614;2023-02-14T14:22:55;22.10;86.20
50570;DHT22;36525;49.398;7.614;2023-02-14T14:25:40;22.30;85.40
50570;DHT22;36525;49.398;7.614;2023-02-14T14:28:15;22.30;83.70
50570;DHT22;36525;49.398;7.614;2023-02-14T14:30:45;22.30;84.10
50570;DHT22;36525;49.398;7.614;2023-02-14T14:33:14;22.70;83.40
50570;DHT22;36525;49.398;7.614;2023-02-14T14:36:06;22.90;81.10
50570;DHT22;36525;49.398;7.614;2023-02-14T14:38:47;22.50;81.10
50570;DHT22;36525;49.398;7.614;2023-02-14T14:41:15;22.30;81.10
50570;DHT22;36525;49.398;7.614;2023-02-14T14:43:44;22.10;81.00
50570;DHT22;36525;49.398;7.614;2023-02-14T14:46:12;21.90;80.00
50570;DHT22;36525;49.398;7.614;2023-02-14T14:48:46;21.20;81.40
50570;DHT22;36525;49.398;7.614;2023-02-14T14:51:25;21.40;81.20
50570;DHT22;36525;49.398;7.614;2023-02-14T14:54:13;21.90;79.90
50570;DHT22;36525;49.398;7.614;2023-02-14T14:56:49;19.50;82.00
50570;DHT22;36525;49.398;7.614;2023-02-14T15:01:48;20.90;80.90
50570;DHT22;36525;49.398;7.614;2023-02-14T15:04:31;21.20;81.10
50570;DHT22;36525;49.398;7.614;2023-02-14T15:07:20;21.20;80.20
50570;DHT22;36525;49.398;7.614;2023-02-14T15:09:49;21.00;80.20
50570;DHT22;36525;49.398;7.614;2023-02-14T15:12:20;21.10;80.80
50570;DHT22;36525;49.398;7.614;2023-02-14T15:15:10;21.40;80.30
50570;DHT22;36525;49.398;7.614;2023-02-14T15:17:39;21.50;79.30
50570;DHT22;36525;49.398;7.614;2023-02-14T15:22:48;21.00;79.70
50570;DHT22;36525;49.398;7.614;2023-02-14T15:25:18;20.50;79.90
50570;DHT22;36525;49.398;7.614;2023-02-14T15:27:47;20.20;80.90
50570;DHT22;36525;49.398;7.614;2023-02-14T15:30:26;20.50;81.10
50570;DHT22;36525;49.398;7.614;2023-02-14T15:33:04;20.10;80.60
50570;DHT22;36525;49.398;7.614;2023-02-14T15:35:33;19.90;80.90
50570;DHT22;36525;49.398;7.614;2023-02-14T15:38:03;19.40;81.20
50570;DHT22;36525;49.398;7.614;2023-02-14T15:40:33;19.10;82.20
50570;DHT22;36525;49.398;7.614;2023-02-14T15:43:20;18.80;82.60
50570;DHT22;36525;49.398;7.614;2023-02-14T15:45:52;18.40;82.90
50570;DHT22;36525;49.398;7.614;2023-02-14T15:51:00;17.60;84.10
50570;DHT22;36525;49.398;7.614;2023-02-14T15:53:42;17.40;85.20
50570;DHT22;36525;49.398;7.614;2023-02-14T15:59:19;16.80;85.70
50570;DHT22;36525;49.398;7.614;2023-02-14T16:02:03;16.10;86.70
50570;DHT22;36525;49.398;7.614;2023-02-14T16:04:46;15.00;89.00
50570;DHT22;36525;49.398;7.614;2023-02-14T16:07:28;15.20;89.70
50570;DHT22;36525;49.398;7.614;2023-02-14T16:13:18;14.00;91.00
50570;DHT22;36525;49.398;7.614;2023-02-14T16:15:57;13.60;91.60
50570;DHT22;36525;49.398;7.614;2023-02-14T16:18:41;12.90;92.30
50570;DHT22;36525;49.398;7.614;2023-02-14T16:21:19;12.10;93.00
50570;DHT22;36525;49.398;7.614;2023-02-14T16:26:34;9.50;96.50
50570;DHT22;36525;49.398;7.614;2023-02-14T16:29:05;8.60;99.10
50570;DHT22;36525;49.398;7.614;2023-02-14T16:31:33;7.80;99.90
50570;DHT22;36525;49.398;7.614;2023-02-14T16:34:01;7.30;99.90
50570;DHT22;36525;49.398;7.614;2023-02-14T16:36:30;6.90;99.90
50570;DHT22;36525;49.398;7.614;2023-02-14T16:39:01;6.50;99.90
50570;DHT22;36525;49.398;7.614;2023-02-14T16:41:32;6.10;99.90
50570;DHT22;36525;49.398;7.614;2023-02-14T16:44:00;5.90;99.90
50570;DHT22;36525;49.398;7.614;2023-02-14T16:46:29;5.70;99.90
50570;DHT22;36525;49.398;7.614;2023-02-14T16:48:57;5.50;99.90
50570;DHT22;36525;49.398;7.614;2023-02-14T16:51:27;5.40;99.90
50570;DHT22;36525;49.398;7.614;2023-02-14T16:53:58;5.10;99.90
50570;DHT22;36525;49.398;7.614;2023-02-14T16:56:39;5.00;99.90
50570;DHT22;36525;49.398;7.614;2023-02-14T16:59:10;4.80;99.90
50570;DHT22;36525;49.398;7.614;2023-02-14T17:01:37;4.50;99.90
50570;DHT22;36525;49.398;7.614;2023-02-14T17:04:04;4.40;99.90
50570;DHT22;36525;49.398;7.614;2023-02-14T17:06:33;4.20;99.90
50570;DHT22;36525;49.398;7.614;2023-02-14T17:09:04;3.90;99.90
50570;DHT22;36525;49.398;7.614;2023-02-14T17:11:38;3.70;99.90
50570;DHT22;36525;49.398;7.614;2023-02-14T17:14:11;3.50;99.90
50570;DHT22;36525;49.398;7.614;2023-02-14T17:16:41;3.50;99.90
50570;DHT22;36525;49.398;7.614;2023-02-14T17:19:09;3.40;99.90
50570;DHT22;36525;49.398;7.614;2023-02-14T17:21:36;3.30;99.90
50570;DHT22;36525;49.398;7.614;2023-02-14T17:24:04;3.00;99.90
50570;DHT22;36525;49.398;7.614;2023-02-14T17:26:31;2.80;99.90
50570;DHT22;36525;49.398;7.614;2023-02-14T17:28:59;2.60;99.90
50570;DHT22;36525;49.398;7.614;2023-02-14T17:31:26;2.50;99.90
50570;DHT22;36525;49.398;7.614;2023-02-14T17:33:54;2.40;99.90
50570;DHT22;36525;49.398;7.614;2023-02-14T17:36:21;2.30;99.90
50570;DHT22;36525;49.398;7.614;2023-02-14T17:38:52;2.30;99.90
50570;DHT22;36525;49.398;7.614;2023-02-14T17:41:24;2.30;99.90
50570;DHT22;36525;49.398;7.614;2023-02-14T17:43:52;2.30;99.90
50570;DHT22;36525;49.398;7.614;2023-02-14T17:46:20;2.50;99.90
50570;DHT22;36525;49.398;7.614;2023-02-14T17:48:48;2.50;99.90
50570;DHT22;36525;49.398;7.614;2023-02-14T17:51:16;2.40;99.90
50570;DHT22;36525;49.398;7.614;2023-02-14T17:53:47;2.40;99.90
50570;DHT22;36525;49.398;7.614;2023-02-14T17:56:17;2.50;99.90
50570;DHT22;36525;49.398;7.614;2023-02-14T17:58:51;2.40;99.90
50570;DHT22;36525;49.398;7.614;2023-02-14T18:01:20;2.40;99.90
50570;DHT22;36525;49.398;7.614;2023-02-14T18:03:49;2.50;99.90
50570;DHT22;36525;49.398;7.614;2023-02-14T18:06:20;2.50;99.90
50570;DHT22;36525;49.398;7.614;2023-02-14T18:08:48;2.60;99.90
50570;DHT22;36525;49.398;7.614;2023-02-14T18:11:19;2.50;99.90
50570;DHT22;36525;49.398;7.614;2023-02-14T18:13:47;2.50;99.90
50570;DHT22;36525;49.398;7.614;2023-02-14T18:16:17;2.30;99.90
50570;DHT22;36525;49.398;7.614;2023-02-14T18:18:44;2.20;99.90
50570;DHT22;36525;49.398;7.614;2023-02-14T18:21:14;2.10;99.90
50570;DHT22;36525;49.398;7.614;2023-02-14T18:23:42;2.20;99.90
50570;DHT22;36525;49.398;7.614;2023-02-14T18:26:11;2.30;99.90
50570;DHT22;36525;49.398;7.614;2023-02-14T18:28:40;2.10;99.90
50570;DHT22;36525;49.398;7.614;2023-02-14T18:31:08;2.10;99.90
50570;DHT22;36525;49.398;7.614;2023-02-14T18:33:37;2.10;99.90
50570;DHT22;36525;49.398;7.614;2023-02-14T18:36:07;2.00;99.90
50570;DHT22;36525;49.398;7.614;2023-02-14T18:38:38;2.10;99.90
50570;DHT22;36525;49.398;7.614;2023-02-14T18:41:08;2.10;99.90
50570;DHT22;36525;49.398;7.614;2023-02-14T18:43:37;2.10;99.90
50570;DHT22;36525;49.398;7.614;2023-02-14T18:46:15;2.00;99.90
50570;DHT22;36525;49.398;7.614;2023-02-14T18:48:43;2.20;99.90
50570;DHT22;36525;49.398;7.614;2023-02-14T18:51:28;2.20;99.90
50570;DHT22;36525;49.398;7.614;2023-02-14T18:53:58;2.30;99.90
50570;DHT22;36525;49.398;7.614;2023-02-14T18:56:30;2.20;99.90
50570;DHT22;36525;49.398;7.614;2023-02-14T18:59:01;2.00;99.90
50570;DHT22;36525;49.398;7.614;2023-02-14T19:01:36;2.10;99.90
50570;DHT22;36525;49.398;7.614;2023-02-14T19:04:08;1.80;99.90
50570;DHT22;36525;49.398;7.614;2023-02-14T19:06:39;1.90;99.90
50570;DHT22;36525;49.398;7.614;2023-02-14T19:09:12;1.90;99.90
50570;DHT22;36525;49.398;7.614;2023-02-14T19:11:40;1.80;99.90
50570;DHT22;36525;49.398;7.614;2023-02-14T19:14:08;1.70;99.90